sensor_id;sensor_type;location;lat;lon;timestamp;temperature;humidity
52267;DHT22;38223;50.940;4.034;2022-08-01T00:00:23;21.70;99.90
52267;DHT22;38223;50.940;4.034;2022-08-01T00:02:58;21.50;99.90
52267;DHT22;38223;50.940;4.034;2022-08-01T00:05:31;21.50;99.90
52267;DHT22;38223;50.940;4.034;2022-08-01T00:08:04;21.50;99.90
52267;DHT22;38223;50.940;4.034;2022-08-01T00:10:39;21.60;99.90
52267;DHT22;38223;50.940;4.034;2022-08-01T00:13:08;21.60;99.90
52267;DHT22;38223;50.940;4.034;2022-08-01T00:15:41;21.60;99.90
52267;DHT22;38223;50.940;4.034;2022-08-01T00:18:14;21.50;99.90
52267;DHT22;38223;50.940;4.034;2022-08-01T00:20:47;21.40;99.90
52267;DHT22;38223;50.940;4.034;2022-08-01T00:23:19;21.30;99.90
52267;DHT22;38223;50.940;4.034;2022-08-01T00:25:54;21.20;99.90
52267;DHT22;38223;50.940;4.034;2022-08-01T00:28:29;21.20;99.90
52267;DHT22;38223;50.940;4.034;2022-08-01T00:31:00;21.10;99.90
52267;DHT22;38223;50.940;4.034;2022-08-01T00:33:33;21.20;99.90
52267;DHT22;38223;50.940;4.034;2022-08-01T00:36:06;21.20;99.90
52267;DHT22;38223;50.940;4.034;2022-08-01T00:38:36;21.20;99.90
52267;DHT22;38223;50.940;4.034;2022-08-01T00:41:07;21.10;99.90
52267;DHT22;38223;50.940;4.034;2022-08-01T00:43:40;21.10;99.90
52267;DHT22;38223;50.940;4.034;2022-08-01T00:46:13;21.20;99.90
52267;DHT22;38223;50.940;4.034;2022-08-01T00:48:45;21.20;99.90
52267;DHT22;38223;50.940;4.034;2022-08-01T00:51:18;21.20;99.90
52267;DHT22;38223;50.940;4.034;2022-08-01T00:53:52;21.10;99.90
52267;DHT22;38223;50.940;4.034;2022-08-01T00:56:27;21.00;99.90
52267;DHT22;38223;50.940;4.034;2022-08-01T00:59:02;21.00;99.90
52267;DHT22;38223;50.940;4.034;2022-08-01T01:01:38;21.10;99.90
52267;DHT22;38223;50.940;4.034;2022-08-01T01:04:07;21.00;99.90
52267;DHT22;38223;50.940;4.034;2022-08-01T01:12:53;21.00;99.90
52267;DHT22;38223;50.940;4.034;2022-08-01T01:15:33;21.00;99.90
52267;DHT22;38223;50.940;4.034;2022-08-01T01:18:30;21.00;99.90
52267;DHT22;38223;50.940;4.034;2022-08-01T01:20:41;21.00;99.90
52267;DHT22;38223;50.940;4.034;2022-08-01T01:23:22;21.00;99.90
52267;DHT22;38223;50.940;4.034;2022-08-01T01:29:02;21.10;99.90
52267;DHT22;38223;50.940;4.034;2022-08-01T01:31:36;21.00;99.90
52267;DHT22;38223;50.940;4.034;2022-08-01T01:34:04;21.00;99.90
52267;DHT22;38223;50.940;4.034;2022-08-01T01:36:40;21.00;99.90
52267;DHT22;38223;50.940;4.034;2022-08-01T01:39:14;21.10;99.90
52267;DHT22;38223;50.940;4.034;2022-08-01T01:41:50;21.10;99.90
52267;DHT22;38223;50.940;4.034;2022-08-01T01:44:21;21.10;99.90
52267;DHT22;38223;50.940;4.034;2022-08-01T01:46:56;21.10;99.90
52267;DHT22;38223;50.940;4.034;2022-08-01T01:49:27;21.20;99.90
52267;DHT22;38223;50.940;4.034;2022-08-01T01:52:00;21.30;99.90
52267;DHT22;38223;50.940;4.034;2022-08-01T01:54:37;21.20;99.90
52267;DHT22;38223;50.940;4.034;2022-08-01T01:57:10;21.30;99.90
52267;DHT22;38223;50.940;4.034;2022-08-01T01:59:41;21.30;99.90
52267;DHT22;38223;50.940;4.034;2022-08-01T02:02:16;21.40;99.90
52267;DHT22;38223;50.940;4.034;2022-08-01T02:04:49;21.40;99.90
52267;DHT22;38223;50.940;4.034;2022-08-01T02:07:27;21.40;99.90
52267;DHT22;38223;50.940;4.034;2022-08-01T02:10:03;21.30;99.90
52267;DHT22;38223;50.940;4.034;2022-08-01T02:12:37;21.20;99.90
52267;DHT22;38223;50.940;4.034;2022-08-01T02:15:13;21.10;99.90
52267;DHT22;38223;50.940;4.034;2022-08-01T02:17:47;21.00;99.90
52267;DHT22;38223;50.940;4.034;2022-08-01T02:20:20;21.10;99.90
52267;DHT22;38223;50.940;4.034;2022-08-01T02:22:55;21.20;99.90
52267;DHT22;38223;50.940;4.034;2022-08-01T02:28:18;21.30;99.90
52267;DHT22;38223;50.940;4.034;2022-08-01T02:30:51;21.20;99.90
52267;DHT22;38223;50.940;4.034;2022-08-01T02:33:39;21.00;99.90
52267;DHT22;38223;50.940;4.034;2022-08-01T02:36:01;20.90;99.90
52267;DHT22;38223;50.940;4.034;2022-08-01T02:38:40;20.80;99.90
52267;DHT22;38223;50.940;4.034;2022-08-01T02:41:12;20.80;99.90
52267;DHT22;38223;50.940;4.034;2022-08-01T02:43:46;20.90;99.90
52267;DHT22;38223;50.940;4.034;2022-08-01T02:46:22;21.00;99.90
52267;DHT22;38223;50.940;4.034;2022-08-01T02:49:10;21.10;99.90
52267;DHT22;38223;50.940;4.034;2022-08-01T02:51:44;21.20;99.90
52267;DHT22;38223;50.940;4.034;2022-08-01T02:54:17;21.00;99.90
52267;DHT22;38223;50.940;4.034;2022-08-01T02:56:50;20.90;99.90
52267;DHT22;38223;50.940;4.034;2022-08-01T02:59:23;20.90;99.90
52267;DHT22;38223;50.940;4.034;2022-08-01T03:01:57;20.90;99.90
52267;DHT22;38223;50.940;4.034;2022-08-01T03:04:32;20.90;99.90
52267;DHT22;38223;50.940;4.034;2022-08-01T03:07:07;20.70;99.90
52267;DHT22;38223;50.940;4.034;2022-08-01T03:09:42;20.70;99.90
52267;DHT22;38223;50.940;4.034;2022-08-01T03:12:17;20.30;99.90
52267;DHT22;38223;50.940;4.034;2022-08-01T03:14:49;20.20;99.90
52267;DHT22;38223;50.940;4.034;2022-08-01T03:17:23;20.00;99.90
52267;DHT22;38223;50.940;4.034;2022-08-01T03:19:59;19.90;99.90
52267;DHT22;38223;50.940;4.034;2022-08-01T03:22:36;19.90;99.90
52267;DHT22;38223;50.940;4.034;2022-08-01T03:25:08;20.00;99.90
52267;DHT22;38223;50.940;4.034;2022-08-01T03:27:43;20.20;99.90
52267;DHT22;38223;50.940;4.034;2022-08-01T03:30:22;20.30;99.90
52267;DHT22;38223;50.940;4.034;2022-08-01T03:32:57;20.30;99.90
52267;DHT22;38223;50.940;4.034;2022-08-01T03:35:37;20.20;99.90
52267;DHT22;38223;50.940;4.034;2022-08-01T03:38:09;20.10;99.90
52267;DHT22;38223;50.940;4.034;2022-08-01T03:40:44;20.20;99.90
52267;DHT22;38223;50.940;4.034;2022-08-01T03:43:30;20.10;99.90
52267;DHT22;38223;50.940;4.034;2022-08-01T03:46:20;20.00;99.90
52267;DHT22;38223;50.940;4.034;2022-08-01T03:48:53;20.00;99.90
52267;DHT22;38223;50.940;4.034;2022-08-01T03:51:27;20.20;99.90
52267;DHT22;38223;50.940;4.034;2022-08-01T03:54:02;20.20;99.90
52267;DHT22;38223;50.940;4.034;2022-08-01T03:56:37;20.20;99.90
52267;DHT22;38223;50.940;4.034;2022-08-01T03:59:12;20.30;99.90
52267;DHT22;38223;50.940;4.034;2022-08-01T04:01:48;20.30;99.90
52267;DHT22;38223;50.940;4.034;2022-08-01T04:04:22;20.40;99.90
52267;DHT22;38223;50.940;4.034;2022-08-01T04:06:54;20.40;99.90
52267;DHT22;38223;50.940;4.034;2022-08-01T04:09:26;20.60;99.90
52267;DHT22;38223;50.940;4.034;2022-08-01T04:12:01;20.60;99.90
52267;DHT22;38223;50.940;4.034;2022-08-01T04:14:32;20.50;99.90
52267;DHT22;38223;50.940;4.034;2022-08-01T04:17:10;20.80;99.90
52267;DHT22;38223;50.940;4.034;2022-08-01T04:19:43;21.00;99.90
52267;DHT22;38223;50.940;4.034;2022-08-01T04:22:23;21.20;99.90
52267;DHT22;38223;50.940;4.034;2022-08-01T04:24:55;21.30;99.90
52267;DHT22;38223;50.940;4.034;2022-08-01T04:27:31;21.10;99.90
52267;DHT22;38223;50.940;4.034;2022-08-01T04:30:00;20.90;99.90
52267;DHT22;38223;50.940;4.034;2022-08-01T04:32:38;20.90;99.90
52267;DHT22;38223;50.940;4.034;2022-08-01T04:35:11;20.80;99.90
52267;DHT22;38223;50.940;4.034;2022-08-01T04:37:45;20.70;99.90
52267;DHT22;38223;50.940;4.034;2022-08-01T04:40:19;20.80;99.90
52267;DHT22;38223;50.940;4.034;2022-08-01T04:42:54;20.80;99.90
52267;DHT22;38223;50.940;4.034;2022-08-01T04:45:27;20.90;99.90
52267;DHT22;38223;50.940;4.034;2022-08-01T04:48:04;20.80;99.90
52267;DHT22;38223;50.940;4.034;2022-08-01T04:50:33;20.70;99.90
52267;DHT22;38223;50.940;4.034;2022-08-01T04:53:13;20.60;99.90
52267;DHT22;38223;50.940;4.034;2022-08-01T04:55:42;20.60;99.90
52267;DHT22;38223;50.940;4.034;2022-08-01T04:58:14;20.50;99.90
52267;DHT22;38223;50.940;4.034;2022-08-01T05:00:47;20.50;99.90
52267;DHT22;38223;50.940;4.034;2022-08-01T05:03:18;20.50;99.90
52267;DHT22;38223;50.940;4.034;2022-08-01T05:05:55;20.50;99.90
52267;DHT22;38223;50.940;4.034;2022-08-01T05:08:24;20.50;99.90
52267;DHT22;38223;50.940;4.034;2022-08-01T05:10:58;20.60;99.90
52267;DHT22;38223;50.940;4.034;2022-08-01T05:13:27;20.50;99.90
52267;DHT22;38223;50.940;4.034;2022-08-01T05:16:01;20.50;99.90
52267;DHT22;38223;50.940;4.034;2022-08-01T05:18:30;20.60;99.90
52267;DHT22;38223;50.940;4.034;2022-08-01T05:21:02;20.70;99.90
52267;DHT22;38223;50.940;4.034;2022-08-01T05:23:36;20.60;99.90
52267;DHT22;38223;50.940;4.034;2022-08-01T05:26:10;20.80;99.90
52267;DHT22;38223;50.940;4.034;2022-08-01T05:28:40;21.00;99.90
52267;DHT22;38223;50.940;4.034;2022-08-01T05:31:25;21.20;99.90
52267;DHT22;38223;50.940;4.034;2022-08-01T05:33:59;21.00;99.90
52267;DHT22;38223;50.940;4.034;2022-08-01T05:36:30;21.00;99.90
52267;DHT22;38223;50.940;4.034;2022-08-01T05:39:01;21.00;99.90
52267;DHT22;38223;50.940;4.034;2022-08-01T05:41:31;21.20;99.90
52267;DHT22;38223;50.940;4.034;2022-08-01T05:44:04;21.20;99.90
52267;DHT22;38223;50.940;4.034;2022-08-01T05:46:37;21.20;99.90
52267;DHT22;38223;50.940;4.034;2022-08-01T05:49:09;21.40;99.90
52267;DHT22;38223;50.940;4.034;2022-08-01T05:51:40;21.40;99.90
52267;DHT22;38223;50.940;4.034;2022-08-01T05:54:14;21.50;99.90
52267;DHT22;38223;50.940;4.034;2022-08-01T05:56:43;21.50;99.90
52267;DHT22;38223;50.940;4.034;2022-08-01T05:59:16;21.30;99.90
52267;DHT22;38223;50.940;4.034;2022-08-01T06:01:52;21.20;99.90
52267;DHT22;38223;50.940;4.034;2022-08-01T06:04:23;21.30;99.90
52267;DHT22;38223;50.940;4.034;2022-08-01T06:06:57;21.20;99.90
52267;DHT22;38223;50.940;4.034;2022-08-01T06:09:27;21.40;99.90
52267;DHT22;38223;50.940;4.034;2022-08-01T06:11:58;21.30;99.90
52267;DHT22;38223;50.940;4.034;2022-08-01T06:14:31;21.20;99.90
52267;DHT22;38223;50.940;4.034;2022-08-01T06:17:01;21.10;99.90
52267;DHT22;38223;50.940;4.034;2022-08-01T06:19:33;21.20;99.90
52267;DHT22;38223;50.940;4.034;2022-08-01T06:22:01;21.20;99.90
52267;DHT22;38223;50.940;4.034;2022-08-01T06:24:36;21.30;99.90
52267;DHT22;38223;50.940;4.034;2022-08-01T06:27:06;21.20;99.90
52267;DHT22;38223;50.940;4.034;2022-08-01T06:29:42;21.30;99.90
52267;DHT22;38223;50.940;4.034;2022-08-01T06:32:11;21.20;99.90
52267;DHT22;38223;50.940;4.034;2022-08-01T06:34:44;21.30;99.90
52267;DHT22;38223;50.940;4.034;2022-08-01T06:40:11;21.40;99.90
52267;DHT22;38223;50.940;4.034;2022-08-01T06:42:45;21.30;99.90
52267;DHT22;38223;50.940;4.034;2022-08-01T06:45:19;21.30;99.90
52267;DHT22;38223;50.940;4.034;2022-08-01T06:47:50;21.30;99.90
52267;DHT22;38223;50.940;4.034;2022-08-01T06:50:22;21.50;99.90
52267;DHT22;38223;50.940;4.034;2022-08-01T06:52:58;21.20;99.90
52267;DHT22;38223;50.940;4.034;2022-08-01T06:55:30;20.90;99.90
52267;DHT22;38223;50.940;4.034;2022-08-01T06:57:59;20.90;99.90
52267;DHT22;38223;50.940;4.034;2022-08-01T07:00:29;21.30;99.90
52267;DHT22;38223;50.940;4.034;2022-08-01T07:03:01;21.50;99.90
52267;DHT22;38223;50.940;4.034;2022-08-01T07:05:32;21.60;99.90
52267;DHT22;38223;50.940;4.034;2022-08-01T07:08:04;21.80;99.90
52267;DHT22;38223;50.940;4.034;2022-08-01T07:10:33;22.10;99.90
52267;DHT22;38223;50.940;4.034;2022-08-01T07:13:05;22.10;99.90
52267;DHT22;38223;50.940;4.034;2022-08-01T07:15:44;22.00;99.90
52267;DHT22;38223;50.940;4.034;2022-08-01T07:18:15;22.00;99.90
52267;DHT22;38223;50.940;4.034;2022-08-01T07:20:47;21.50;99.90
52267;DHT22;38223;50.940;4.034;2022-08-01T07:23:21;21.30;99.90
52267;DHT22;38223;50.940;4.034;2022-08-01T07:25:57;21.30;99.90
52267;DHT22;38223;50.940;4.034;2022-08-01T07:28:29;21.80;99.90
52267;DHT22;38223;50.940;4.034;2022-08-01T07:31:02;22.00;99.90
52267;DHT22;38223;50.940;4.034;2022-08-01T07:33:34;22.00;99.90
52267;DHT22;38223;50.940;4.034;2022-08-01T07:36:06;22.20;99.90
52267;DHT22;38223;50.940;4.034;2022-08-01T07:38:43;22.00;99.90
52267;DHT22;38223;50.940;4.034;2022-08-01T07:41:32;21.90;99.90
52267;DHT22;38223;50.940;4.034;2022-08-01T07:44:04;21.60;99.90
52267;DHT22;38223;50.940;4.034;2022-08-01T07:46:37;21.70;99.90
52267;DHT22;38223;50.940;4.034;2022-08-01T07:49:12;21.90;99.90
52267;DHT22;38223;50.940;4.034;2022-08-01T07:51:44;21.80;99.90
52267;DHT22;38223;50.940;4.034;2022-08-01T07:54:16;22.10;99.90
52267;DHT22;38223;50.940;4.034;2022-08-01T07:56:47;22.20;99.90
52267;DHT22;38223;50.940;4.034;2022-08-01T07:59:21;22.20;99.90
52267;DHT22;38223;50.940;4.034;2022-08-01T08:01:52;21.90;99.90
52267;DHT22;38223;50.940;4.034;2022-08-01T08:04:24;21.40;99.90
52267;DHT22;38223;50.940;4.034;2022-08-01T08:06:57;21.10;99.90
52267;DHT22;38223;50.940;4.034;2022-08-01T08:09:32;21.00;99.90
52267;DHT22;38223;50.940;4.034;2022-08-01T08:12:06;21.20;99.90
52267;DHT22;38223;50.940;4.034;2022-08-01T08:14:37;21.70;99.90
52267;DHT22;38223;50.940;4.034;2022-08-01T08:17:08;22.20;99.90
52267;DHT22;38223;50.940;4.034;2022-08-01T08:19:38;22.10;99.90
52267;DHT22;38223;50.940;4.034;2022-08-01T08:22:14;21.90;99.90
52267;DHT22;38223;50.940;4.034;2022-08-01T08:24:48;21.80;99.90
52267;DHT22;38223;50.940;4.034;2022-08-01T08:27:20;21.90;99.90
52267;DHT22;38223;50.940;4.034;2022-08-01T08:29:50;22.10;99.90
52267;DHT22;38223;50.940;4.034;2022-08-01T08:32:21;22.20;99.90
52267;DHT22;38223;50.940;4.034;2022-08-01T08:34:55;22.30;99.90
52267;DHT22;38223;50.940;4.034;2022-08-01T08:37:28;22.60;99.90
52267;DHT22;38223;50.940;4.034;2022-08-01T08:40:08;22.60;99.90
52267;DHT22;38223;50.940;4.034;2022-08-01T08:42:43;22.50;99.90
52267;DHT22;38223;50.940;4.034;2022-08-01T08:45:14;22.70;99.90
52267;DHT22;38223;50.940;4.034;2022-08-01T08:47:47;23.00;99.90
52267;DHT22;38223;50.940;4.034;2022-08-01T08:50:22;23.10;99.90
52267;DHT22;38223;50.940;4.034;2022-08-01T08:52:58;23.10;99.90
52267;DHT22;38223;50.940;4.034;2022-08-01T08:55:31;23.10;99.90
52267;DHT22;38223;50.940;4.034;2022-08-01T08:58:04;22.90;99.90
52267;DHT22;38223;50.940;4.034;2022-08-01T09:00:37;22.50;99.90
52267;DHT22;38223;50.940;4.034;2022-08-01T09:03:13;22.70;99.90
52267;DHT22;38223;50.940;4.034;2022-08-01T09:05:48;22.80;99.90
52267;DHT22;38223;50.940;4.034;2022-08-01T09:08:20;23.20;99.90
52267;DHT22;38223;50.940;4.034;2022-08-01T09:10:53;23.10;99.90
52267;DHT22;38223;50.940;4.034;2022-08-01T09:13:31;23.20;99.90
52267;DHT22;38223;50.940;4.034;2022-08-01T09:15:59;23.50;99.90
52267;DHT22;38223;50.940;4.034;2022-08-01T09:18:39;23.20;99.90
52267;DHT22;38223;50.940;4.034;2022-08-01T09:21:13;22.70;99.90
52267;DHT22;38223;50.940;4.034;2022-08-01T09:23:48;22.50;99.90
52267;DHT22;38223;50.940;4.034;2022-08-01T09:26:30;22.50;99.90
52267;DHT22;38223;50.940;4.034;2022-08-01T09:29:07;23.00;99.90
52267;DHT22;38223;50.940;4.034;2022-08-01T09:31:41;23.40;99.90
52267;DHT22;38223;50.940;4.034;2022-08-01T09:34:09;23.30;99.90
52267;DHT22;38223;50.940;4.034;2022-08-01T09:36:55;23.30;99.90
52267;DHT22;38223;50.940;4.034;2022-08-01T09:39:36;23.10;99.90
52267;DHT22;38223;50.940;4.034;2022-08-01T09:42:22;23.00;99.90
52267;DHT22;38223;50.940;4.034;2022-08-01T09:44:53;23.00;99.90
52267;DHT22;38223;50.940;4.034;2022-08-01T09:47:36;23.00;99.90
52267;DHT22;38223;50.940;4.034;2022-08-01T09:49:56;23.10;99.90
52267;DHT22;38223;50.940;4.034;2022-08-01T09:52:28;23.50;99.90
52267;DHT22;38223;50.940;4.034;2022-08-01T09:55:00;23.70;99.90
52267;DHT22;38223;50.940;4.034;2022-08-01T09:57:34;23.70;99.90
52267;DHT22;38223;50.940;4.034;2022-08-01T10:00:16;23.90;99.90
52267;DHT22;38223;50.940;4.034;2022-08-01T10:02:41;24.20;99.90
52267;DHT22;38223;50.940;4.034;2022-08-01T10:05:15;24.30;99.90
52267;DHT22;38223;50.940;4.034;2022-08-01T10:07:57;24.40;99.90
52267;DHT22;38223;50.940;4.034;2022-08-01T10:10:31;24.30;99.90
52267;DHT22;38223;50.940;4.034;2022-08-01T10:13:05;24.30;99.90
52267;DHT22;38223;50.940;4.034;2022-08-01T10:15:37;24.20;99.90
52267;DHT22;38223;50.940;4.034;2022-08-01T10:18:08;24.20;99.90
52267;DHT22;38223;50.940;4.034;2022-08-01T10:20:41;24.10;99.90
52267;DHT22;38223;50.940;4.034;2022-08-01T10:23:13;24.10;99.90
52267;DHT22;38223;50.940;4.034;2022-08-01T10:25:45;24.30;99.90
52267;DHT22;38223;50.940;4.034;2022-08-01T10:28:22;23.90;99.90
52267;DHT22;38223;50.940;4.034;2022-08-01T10:30:52;23.90;99.90
52267;DHT22;38223;50.940;4.034;2022-08-01T10:33:27;24.30;99.90
52267;DHT22;38223;50.940;4.034;2022-08-01T10:35:58;24.50;99.90
52267;DHT22;38223;50.940;4.034;2022-08-01T10:38:28;24.30;99.90
52267;DHT22;38223;50.940;4.034;2022-08-01T10:40:57;24.60;99.90
52267;DHT22;38223;50.940;4.034;2022-08-01T10:43:34;24.70;99.90
52267;DHT22;38223;50.940;4.034;2022-08-01T10:46:04;24.70;99.90
52267;DHT22;38223;50.940;4.034;2022-08-01T10:49:01;24.50;99.90
52267;DHT22;38223;50.940;4.034;2022-08-01T10:51:28;24.50;99.90
52267;DHT22;38223;50.940;4.034;2022-08-01T10:54:02;24.50;99.90
52267;DHT22;38223;50.940;4.034;2022-08-01T10:56:39;25.10;99.90
52267;DHT22;38223;50.940;4.034;2022-08-01T10:59:10;25.30;99.90
52267;DHT22;38223;50.940;4.034;2022-08-01T11:01:41;25.20;99.90
52267;DHT22;38223;50.940;4.034;2022-08-01T11:07:05;24.90;99.90
52267;DHT22;38223;50.940;4.034;2022-08-01T11:09:45;25.00;99.90
52267;DHT22;38223;50.940;4.034;2022-08-01T11:12:19;25.30;99.90
52267;DHT22;38223;50.940;4.034;2022-08-01T11:17:44;25.30;99.90
52267;DHT22;38223;50.940;4.034;2022-08-01T11:20:21;25.30;99.90
52267;DHT22;38223;50.940;4.034;2022-08-01T11:28:27;24.90;99.90
52267;DHT22;38223;50.940;4.034;2022-08-01T11:33:53;25.00;99.90
52267;DHT22;38223;50.940;4.034;2022-08-01T11:36:26;24.70;99.90
52267;DHT22;38223;50.940;4.034;2022-08-01T11:39:10;24.40;99.90
52267;DHT22;38223;50.940;4.034;2022-08-01T11:41:44;24.50;99.90
52267;DHT22;38223;50.940;4.034;2022-08-01T11:44:22;24.80;99.90
52267;DHT22;38223;50.940;4.034;2022-08-01T11:47:06;24.90;99.90
52267;DHT22;38223;50.940;4.034;2022-08-01T11:49:44;24.90;99.90
52267;DHT22;38223;50.940;4.034;2022-08-01T11:52:30;25.40;99.90
52267;DHT22;38223;50.940;4.034;2022-08-01T11:55:07;25.60;99.90
52267;DHT22;38223;50.940;4.034;2022-08-01T11:57:38;26.00;99.90
52267;DHT22;38223;50.940;4.034;2022-08-01T12:00:18;25.90;99.90
52267;DHT22;38223;50.940;4.034;2022-08-01T12:03:01;25.50;99.90
52267;DHT22;38223;50.940;4.034;2022-08-01T12:05:26;25.20;99.90
52267;DHT22;38223;50.940;4.034;2022-08-01T12:07:58;25.00;99.90
52267;DHT22;38223;50.940;4.034;2022-08-01T12:10:34;25.10;99.90
52267;DHT22;38223;50.940;4.034;2022-08-01T12:13:22;25.20;99.90
52267;DHT22;38223;50.940;4.034;2022-08-01T12:15:52;25.10;99.90
52267;DHT22;38223;50.940;4.034;2022-08-01T12:18:30;24.90;99.90
52267;DHT22;38223;50.940;4.034;2022-08-01T12:21:05;25.10;99.90
52267;DHT22;38223;50.940;4.034;2022-08-01T12:23:41;25.00;99.90
52267;DHT22;38223;50.940;4.034;2022-08-01T12:26:14;25.20;99.90
52267;DHT22;38223;50.940;4.034;2022-08-01T12:28:43;25.70;99.90
52267;DHT22;38223;50.940;4.034;2022-08-01T12:31:18;26.30;99.10
52267;DHT22;38223;50.940;4.034;2022-08-01T12:33:49;26.20;98.50
52267;DHT22;38223;50.940;4.034;2022-08-01T12:36:32;25.70;99.10
52267;DHT22;38223;50.940;4.034;2022-08-01T12:39:05;25.20;99.70
52267;DHT22;38223;50.940;4.034;2022-08-01T12:41:37;25.10;99.30
52267;DHT22;38223;50.940;4.034;2022-08-01T12:44:19;25.30;97.80
52267;DHT22;38223;50.940;4.034;2022-08-01T12:46:50;25.20;96.20
52267;DHT22;38223;50.940;4.034;2022-08-01T12:49:23;25.40;94.70
52267;DHT22;38223;50.940;4.034;2022-08-01T12:51:56;25.60;93.80
52267;DHT22;38223;50.940;4.034;2022-08-01T12:54:31;25.40;94.20
52267;DHT22;38223;50.940;4.034;2022-08-01T12:56:59;25.80;93.70
52267;DHT22;38223;50.940;4.034;2022-08-01T12:59:32;26.20;93.20
52267;DHT22;38223;50.940;4.034;2022-08-01T13:02:09;25.90;92.90
52267;DHT22;38223;50.940;4.034;2022-08-01T13:04:54;25.70;94.50
52267;DHT22;38223;50.940;4.034;2022-08-01T13:07:37;25.70;95.10
52267;DHT22;38223;50.940;4.034;2022-08-01T13:10:09;25.60;94.50
52267;DHT22;38223;50.940;4.034;2022-08-01T13:12:50;25.80;94.10
52267;DHT22;38223;50.940;4.034;2022-08-01T13:15:26;25.40;94.30
52267;DHT22;38223;50.940;4.034;2022-08-01T13:17:55;25.20;93.30
52267;DHT22;38223;50.940;4.034;2022-08-01T13:20:32;25.40;94.00
52267;DHT22;38223;50.940;4.034;2022-08-01T13:23:17;25.50;93.90
52267;DHT22;38223;50.940;4.034;2022-08-01T13:25:53;25.50;93.00
52267;DHT22;38223;50.940;4.034;2022-08-01T13:28:25;25.70;93.00
52267;DHT22;38223;50.940;4.034;2022-08-01T13:31:06;25.80;92.30
52267;DHT22;38223;50.940;4.034;2022-08-01T13:33:46;26.00;91.40
52267;DHT22;38223;50.940;4.034;2022-08-01T13:36:20;26.10;91.80
52267;DHT22;38223;50.940;4.034;2022-08-01T13:38:52;26.10;92.10
52267;DHT22;38223;50.940;4.034;2022-08-01T13:41:39;26.00;92.30
52267;DHT22;38223;50.940;4.034;2022-08-01T13:44:11;25.90;93.30
52267;DHT22;38223;50.940;4.034;2022-08-01T13:47:04;26.00;93.40
52267;DHT22;38223;50.940;4.034;2022-08-01T13:49:35;25.80;93.90
52267;DHT22;38223;50.940;4.034;2022-08-01T13:52:09;25.60;94.00
52267;DHT22;38223;50.940;4.034;2022-08-01T13:54:41;25.70;93.80
52267;DHT22;38223;50.940;4.034;2022-08-01T13:57:17;25.60;94.10
52267;DHT22;38223;50.940;4.034;2022-08-01T13:59:47;25.60;93.80
52267;DHT22;38223;50.940;4.034;2022-08-01T14:02:18;25.70;94.00
52267;DHT22;38223;50.940;4.034;2022-08-01T14:04:47;25.90;93.70
52267;DHT22;38223;50.940;4.034;2022-08-01T14:07:22;25.80;93.60
52267;DHT22;38223;50.940;4.034;2022-08-01T14:09:53;25.70;93.80
52267;DHT22;38223;50.940;4.034;2022-08-01T14:12:25;25.60;94.30
52267;DHT22;38223;50.940;4.034;2022-08-01T14:14:55;25.40;94.30
52267;DHT22;38223;50.940;4.034;2022-08-01T14:17:26;25.60;93.50
52267;DHT22;38223;50.940;4.034;2022-08-01T14:19:54;25.70;93.10
52267;DHT22;38223;50.940;4.034;2022-08-01T14:22:33;25.30;93.30
52267;DHT22;38223;50.940;4.034;2022-08-01T14:25:07;25.20;93.60
52267;DHT22;38223;50.940;4.034;2022-08-01T14:27:49;25.40;93.00
52267;DHT22;38223;50.940;4.034;2022-08-01T14:30:19;25.50;93.40
52267;DHT22;38223;50.940;4.034;2022-08-01T14:32:57;25.50;93.40
52267;DHT22;38223;50.940;4.034;2022-08-01T14:35:27;25.70;93.20
52267;DHT22;38223;50.940;4.034;2022-08-01T14:38:02;26.00;92.60
52267;DHT22;38223;50.940;4.034;2022-08-01T14:40:37;26.30;92.10
52267;DHT22;38223;50.940;4.034;2022-08-01T14:43:16;26.10;91.90
52267;DHT22;38223;50.940;4.034;2022-08-01T14:45:46;26.00;91.80
52267;DHT22;38223;50.940;4.034;2022-08-01T14:48:20;26.10;91.60
52267;DHT22;38223;50.940;4.034;2022-08-01T14:50:51;26.50;91.00
52267;DHT22;38223;50.940;4.034;2022-08-01T14:53:24;27.00;90.00
52267;DHT22;38223;50.940;4.034;2022-08-01T14:55:56;27.10;89.10
52267;DHT22;38223;50.940;4.034;2022-08-01T14:58:29;27.10;87.50
52267;DHT22;38223;50.940;4.034;2022-08-01T15:01:02;26.90;87.80
52267;DHT22;38223;50.940;4.034;2022-08-01T15:03:38;26.80;87.00
52267;DHT22;38223;50.940;4.034;2022-08-01T15:06:08;26.20;88.40
52267;DHT22;38223;50.940;4.034;2022-08-01T15:08:38;25.90;89.60
52267;DHT22;38223;50.940;4.034;2022-08-01T15:11:08;25.70;89.80
52267;DHT22;38223;50.940;4.034;2022-08-01T15:13:38;25.70;88.00
52267;DHT22;38223;50.940;4.034;2022-08-01T15:16:11;26.00;87.30
52267;DHT22;38223;50.940;4.034;2022-08-01T15:18:47;26.10;86.50
52267;DHT22;38223;50.940;4.034;2022-08-01T15:21:21;26.60;86.10
52267;DHT22;38223;50.940;4.034;2022-08-01T15:23:54;27.80;82.60
52267;DHT22;38223;50.940;4.034;2022-08-01T15:26:29;28.40;79.30
52267;DHT22;38223;50.940;4.034;2022-08-01T15:29:07;28.80;76.20
52267;DHT22;38223;50.940;4.034;2022-08-01T15:31:39;29.40;74.10
52267;DHT22;38223;50.940;4.034;2022-08-01T15:34:12;30.00;71.80
52267;DHT22;38223;50.940;4.034;2022-08-01T15:36:43;30.60;67.50
52267;DHT22;38223;50.940;4.034;2022-08-01T15:39:16;31.40;64.80
52267;DHT22;38223;50.940;4.034;2022-08-01T15:41:49;31.90;62.30
52267;DHT22;38223;50.940;4.034;2022-08-01T15:44:21;32.20;60.40
52267;DHT22;38223;50.940;4.034;2022-08-01T15:46:57;30.80;62.50
52267;DHT22;38223;50.940;4.034;2022-08-01T15:49:26;29.30;66.30
52267;DHT22;38223;50.940;4.034;2022-08-01T15:51:59;28.50;68.50
52267;DHT22;38223;50.940;4.034;2022-08-01T15:54:34;27.60;71.60
52267;DHT22;38223;50.940;4.034;2022-08-01T15:57:07;27.20;73.50
52267;DHT22;38223;50.940;4.034;2022-08-01T15:59:39;27.20;73.30
52267;DHT22;38223;50.940;4.034;2022-08-01T16:02:12;27.30;72.90
52267;DHT22;38223;50.940;4.034;2022-08-01T16:04:42;27.10;74.00
52267;DHT22;38223;50.940;4.034;2022-08-01T16:07:13;26.70;74.40
52267;DHT22;38223;50.940;4.034;2022-08-01T16:09:46;26.20;75.90
52267;DHT22;38223;50.940;4.034;2022-08-01T16:12:20;26.10;76.40
52267;DHT22;38223;50.940;4.034;2022-08-01T16:14:55;26.20;76.20
52267;DHT22;38223;50.940;4.034;2022-08-01T16:17:25;26.10;76.10
52267;DHT22;38223;50.940;4.034;2022-08-01T16:19:57;26.20;76.30
52267;DHT22;38223;50.940;4.034;2022-08-01T16:22:27;26.40;75.80
52267;DHT22;38223;50.940;4.034;2022-08-01T16:24:59;26.20;76.20
52267;DHT22;38223;50.940;4.034;2022-08-01T16:27:32;26.00;76.90
52267;DHT22;38223;50.940;4.034;2022-08-01T16:30:06;25.90;76.40
52267;DHT22;38223;50.940;4.034;2022-08-01T16:32:35;25.90;76.80
52267;DHT22;38223;50.940;4.034;2022-08-01T16:35:11;26.00;76.70
52267;DHT22;38223;50.940;4.034;2022-08-01T16:37:40;26.00;77.10
52267;DHT22;38223;50.940;4.034;2022-08-01T16:40:12;25.90;77.00